Terminal Aerodrome Forecast
Issued by NWS

Home | Current Version | Previous Version | Text Only | Print | Product List | Glossary Off
Versions: 1 2 3 4 5 6 7 8 9 10 11 12 13 14 15 16

018
FTUS45 KGGW 171120
TAFSDY
TAF
KSDY 171120Z 1712/1812 24011KT P6SM BKN200 WS020/28040KT
     FM171600 25017G25KT P6SM SCT150
     FM180000 26009KT P6SM FEW130
     FM180400 24005KT P6SM FEW110
     FM180900 20004KT P6SM FEW003=

USA.gov is the U.S. government's official web portal to all federal, state and local government web resources and services.